createdAt,value
2023-03-16T00:00:58.201Z,4.66
2023-03-16T00:03:26.001Z,4.73
2023-03-16T00:05:55.068Z,4.99
2023-03-16T00:08:23.041Z,5.14
2023-03-16T00:10:54.234Z,5.22
2023-03-16T00:13:24.469Z,5.40
2023-03-16T00:16:10.204Z,5.60
2023-03-16T00:18:42.117Z,5.28
2023-03-16T00:21:10.018Z,5.72
2023-03-16T00:23:38.049Z,5.70
2023-03-16T00:26:08.960Z,5.50
2023-03-16T00:28:37.364Z,5.58
2023-03-16T00:31:07.446Z,5.81
2023-03-16T00:33:35.413Z,5.65
2023-03-16T00:36:09.595Z,6.32
2023-03-16T00:38:39.959Z,6.41
2023-03-16T00:41:09.345Z,6.38
2023-03-16T00:43:41.405Z,6.19
2023-03-16T00:46:15.220Z,6.50
2023-03-16T00:48:46.996Z,6.02
2023-03-16T00:51:17.693Z,6.03
2023-03-16T00:53:47.119Z,5.87
2023-03-16T00:56:15.621Z,5.97
2023-03-16T00:58:43.970Z,5.90
2023-03-16T01:01:19.764Z,5.90
2023-03-16T01:03:48.930Z,5.58
2023-03-16T01:06:20.778Z,5.68
2023-03-16T01:08:48.924Z,5.73
2023-03-16T01:11:19.963Z,5.61
2023-03-16T01:13:48.551Z,5.40
2023-03-16T01:16:23.310Z,5.59
2023-03-16T01:18:52.596Z,5.44
2023-03-16T01:21:21.885Z,5.58
2023-03-16T01:23:51.106Z,5.43
2023-03-16T01:26:20.699Z,5.44
2023-03-16T01:28:49.671Z,5.09
2023-03-16T01:31:17.942Z,5.10
2023-03-16T01:33:45.841Z,5.00
2023-03-16T01:36:19.597Z,5.30
2023-03-16T01:38:53.194Z,5.20
2023-03-16T01:41:22.194Z,4.89
2023-03-16T01:43:51.964Z,5.23
2023-03-16T01:46:23.028Z,5.28
2023-03-16T01:49:23.910Z,4.92
2023-03-16T01:51:56.367Z,4.99
2023-03-16T01:55:06.387Z,4.82
2023-03-16T01:57:40.395Z,4.92
2023-03-16T02:00:18.669Z,4.79
2023-03-16T02:03:15.150Z,4.61
2023-03-16T02:06:10.393Z,4.38
2023-03-16T02:08:43.789Z,4.57
2023-03-16T02:11:18.198Z,4.65
2023-03-16T02:14:05.254Z,4.20
2023-03-16T02:16:33.837Z,4.55
2023-03-16T02:19:02.049Z,4.54
2023-03-16T02:22:09.633Z,4.70
2023-03-16T02:24:38.706Z,4.82
2023-03-16T02:27:14.038Z,4.47
2023-03-16T02:30:01.438Z,4.29
2023-03-16T02:32:34.869Z,4.58
2023-03-16T02:35:04.037Z,4.23
2023-03-16T02:37:33.920Z,4.59
2023-03-16T02:40:16.893Z,4.31
2023-03-16T02:42:46.272Z,4.18
2023-03-16T02:45:14.760Z,4.47
2023-03-16T02:47:44.524Z,4.28
2023-03-16T02:50:13.900Z,4.51
2023-03-16T02:52:42.518Z,4.38
2023-03-16T02:55:11.171Z,4.81
2023-03-16T02:57:39.014Z,4.88
2023-03-16T03:00:17.432Z,4.90
2023-03-16T03:02:47.325Z,5.10
2023-03-16T03:05:15.193Z,5.13
2023-03-16T03:07:43.176Z,5.45
2023-03-16T03:10:11.635Z,5.75
2023-03-16T03:12:39.607Z,5.53
2023-03-16T03:15:10.865Z,5.59
2023-03-16T03:17:58.810Z,5.57
2023-03-16T03:20:30.373Z,5.92
2023-03-16T03:22:58.297Z,5.76
2023-03-16T03:25:26.162Z,5.83
2023-03-16T03:27:55.965Z,5.94
2023-03-16T03:30:26.271Z,5.83
2023-03-16T03:32:54.439Z,5.84
2023-03-16T03:35:22.979Z,5.79
2023-03-16T03:37:51.254Z,6.10
2023-03-16T03:40:21.281Z,6.49
2023-03-16T03:42:54.290Z,6.09
2023-03-16T03:45:24.172Z,6.29
2023-03-16T03:47:52.311Z,6.28
2023-03-16T03:50:22.089Z,6.36
2023-03-16T03:53:09.763Z,6.30
2023-03-16T03:55:52.604Z,6.19
2023-03-16T03:58:20.325Z,6.09
2023-03-16T04:00:48.081Z,6.42
2023-03-16T04:03:17.867Z,6.09
2023-03-16T04:05:46.721Z,6.20
2023-03-16T04:08:14.467Z,6.11
2023-03-16T04:10:43.206Z,5.93
2023-03-16T04:13:11.104Z,6.14
2023-03-16T04:15:39.008Z,5.87
2023-03-16T04:18:28.494Z,6.08
2023-03-16T04:20:56.867Z,5.82
2023-03-16T04:23:26.333Z,5.76
2023-03-16T04:25:54.947Z,5.69
2023-03-16T04:28:26.402Z,5.48
2023-03-16T04:30:55.207Z,5.43
2023-03-16T04:33:29.270Z,5.17
2023-03-16T04:35:57.905Z,5.03
2023-03-16T04:38:26.543Z,5.35
2023-03-16T04:40:57.089Z,5.39
2023-03-16T04:43:29.283Z,5.40
2023-03-16T04:46:06.218Z,5.38
2023-03-16T04:48:35.441Z,5.14
2023-03-16T04:51:05.994Z,5.10
2023-03-16T04:53:38.834Z,5.01
2023-03-16T04:56:19.756Z,5.31
2023-03-16T04:58:53.855Z,5.62
2023-03-16T05:01:24.804Z,5.36
2023-03-16T05:03:58.622Z,5.56
2023-03-16T05:06:28.195Z,5.64
2023-03-16T05:08:59.148Z,5.34
2023-03-16T05:11:27.025Z,4.96
2023-03-16T05:13:59.272Z,4.96
2023-03-16T05:16:28.166Z,5.30
2023-03-16T05:18:59.004Z,5.03
2023-03-16T05:21:32.335Z,4.96
2023-03-16T05:24:06.115Z,4.94
2023-03-16T05:26:34.677Z,5.06
2023-03-16T05:29:06.604Z,5.34
2023-03-16T05:31:35.052Z,5.14
2023-03-16T05:34:08.977Z,5.05
2023-03-16T05:36:36.913Z,4.81
2023-03-16T05:39:10.060Z,5.12
2023-03-16T05:41:42.363Z,5.16
2023-03-16T05:44:30.159Z,5.12
2023-03-16T05:47:16.034Z,5.37
2023-03-16T05:49:47.965Z,5.36
2023-03-16T05:52:25.566Z,5.38
2023-03-16T05:54:54.806Z,5.30
2023-03-16T05:57:22.827Z,5.41
2023-03-16T05:59:52.950Z,5.50
2023-03-16T06:02:21.997Z,5.26
2023-03-16T06:04:49.818Z,5.15
2023-03-16T06:07:17.716Z,4.89
2023-03-16T06:09:46.155Z,5.01
2023-03-16T06:12:17.228Z,5.16
2023-03-16T06:14:45.199Z,4.87
2023-03-16T06:17:13.246Z,5.09
2023-03-16T06:19:43.100Z,5.04
2023-03-16T06:22:11.085Z,5.12
2023-03-16T06:24:39.947Z,5.15
2023-03-16T06:27:08.275Z,4.98
2023-03-16T06:29:48.105Z,5.02
2023-03-16T06:32:16.243Z,4.63
2023-03-16T06:34:44.255Z,5.00
2023-03-16T06:37:13.814Z,4.86
2023-03-16T06:39:41.680Z,4.97
2023-03-16T06:42:09.746Z,4.89
2023-03-16T06:44:39.261Z,5.02
2023-03-16T06:47:10.645Z,4.53
2023-03-16T06:49:39.267Z,4.52
2023-03-16T06:52:15.788Z,4.47
2023-03-16T06:54:43.681Z,4.41
2023-03-16T06:57:13.284Z,4.40
2023-03-16T06:59:41.407Z,4.26
2023-03-16T07:02:13.318Z,4.27
2023-03-16T07:04:42.584Z,4.10
2023-03-16T07:07:12.015Z,4.01
2023-03-16T07:09:41.785Z,3.98
2023-03-16T07:12:10.576Z,4.45
2023-03-16T07:14:38.758Z,4.06
2023-03-16T07:17:07.192Z,3.79
2023-03-16T07:19:35.387Z,4.03
2023-03-16T07:22:04.441Z,3.77
2023-03-16T07:24:37.309Z,3.94
2023-03-16T07:27:05.330Z,3.59
2023-03-16T07:29:34.354Z,3.65
2023-03-16T07:32:04.521Z,3.69
2023-03-16T07:34:37.870Z,3.69
2023-03-16T07:37:06.780Z,3.57
2023-03-16T07:39:35.693Z,3.53
2023-03-16T07:42:20.111Z,3.22
2023-03-16T07:45:12.567Z,3.27
2023-03-16T07:47:41.883Z,3.23
2023-03-16T07:50:30.333Z,3.08
2023-03-16T07:52:59.075Z,3.31
2023-03-16T07:55:27.570Z,3.39
2023-03-16T07:57:56.540Z,3.02
2023-03-16T08:00:31.427Z,3.13
2023-03-16T08:02:59.805Z,3.22
2023-03-16T08:05:28.021Z,3.13
2023-03-16T08:08:01.919Z,3.13
2023-03-16T08:10:33.853Z,3.25
2023-03-16T08:13:11.499Z,3.20
2023-03-16T08:15:46.186Z,3.40
2023-03-16T08:18:24.075Z,3.23
2023-03-16T08:20:53.611Z,2.82
2023-03-16T08:23:24.256Z,3.02
2023-03-16T08:25:54.520Z,3.21
2023-03-16T08:28:26.271Z,3.30
2023-03-16T08:30:56.138Z,2.85
2023-03-16T08:33:36.268Z,2.99
2023-03-16T08:36:07.403Z,2.86
2023-03-16T08:38:35.475Z,2.91
2023-03-16T08:41:08.696Z,2.98
2023-03-16T08:43:37.739Z,2.60
2023-03-16T08:46:06.868Z,2.55
2023-03-16T08:49:01.736Z,2.43
2023-03-16T08:51:31.206Z,2.66
2023-03-16T08:53:59.735Z,2.75
2023-03-16T08:56:28.966Z,2.67
2023-03-16T08:58:57.642Z,2.79
2023-03-16T09:01:25.885Z,2.84
2023-03-16T09:03:55.186Z,2.80
2023-03-16T09:06:23.354Z,2.74
2023-03-16T09:08:51.530Z,2.92
2023-03-16T09:11:21.639Z,2.59
2023-03-16T09:13:51.232Z,2.48
2023-03-16T09:16:25.643Z,2.55
2023-03-16T09:18:54.346Z,2.57
2023-03-16T09:21:22.027Z,2.41
2023-03-16T09:23:51.022Z,2.81
2023-03-16T09:26:18.885Z,2.37
2023-03-16T09:28:46.857Z,2.57
2023-03-16T09:31:20.590Z,2.38
2023-03-16T09:33:48.666Z,2.46
2023-03-16T09:36:17.722Z,2.69
2023-03-16T09:38:45.393Z,2.56
2023-03-16T09:41:17.187Z,2.32
2023-03-16T09:44:11.778Z,2.47
2023-03-16T09:46:47.980Z,2.23
2023-03-16T09:49:24.121Z,2.40
2023-03-16T09:52:10.598Z,2.35
2023-03-16T09:55:05.612Z,2.15
2023-03-16T09:57:43.026Z,2.82
2023-03-16T10:00:27.586Z,2.51
2023-03-16T10:03:01.699Z,2.63
2023-03-16T10:05:29.961Z,2.35
2023-03-16T10:08:03.978Z,2.22
2023-03-16T10:10:51.857Z,2.34
2023-03-16T10:13:28.758Z,2.30
2023-03-16T10:15:59.845Z,2.37
2023-03-16T10:18:36.018Z,2.11
2023-03-16T10:21:05.382Z,2.08
2023-03-16T10:23:36.352Z,2.28
2023-03-16T10:26:34.220Z,2.26
2023-03-16T10:29:02.248Z,2.16
2023-03-16T10:31:30.570Z,1.98
2023-03-16T10:34:06.717Z,2.03
2023-03-16T10:36:41.500Z,2.34
2023-03-16T10:39:13.055Z,2.20
2023-03-16T10:41:45.423Z,2.04
2023-03-16T10:44:13.306Z,1.98
2023-03-16T10:46:50.001Z,2.19
2023-03-16T10:49:28.216Z,2.04
2023-03-16T10:51:59.561Z,1.99
2023-03-16T10:54:37.797Z,1.95
2023-03-16T10:57:36.254Z,1.90
2023-03-16T11:00:21.180Z,1.84
2023-03-16T11:02:51.514Z,1.75
2023-03-16T11:05:19.146Z,1.76
2023-03-16T11:08:20.734Z,1.66
2023-03-16T11:10:59.755Z,1.93
2023-03-16T11:13:37.940Z,1.90
2023-03-16T11:16:30.720Z,1.86
2023-03-16T11:19:04.019Z,1.93
2023-03-16T11:21:59.087Z,1.95
2023-03-16T11:24:46.244Z,1.94
2023-03-16T11:27:36.793Z,1.79
2023-03-16T11:30:31.147Z,1.64
2023-03-16T11:33:00.926Z,1.65
2023-03-16T11:35:58.632Z,1.90
2023-03-16T11:38:32.341Z,1.79
2023-03-16T11:41:10.478Z,1.72
2023-03-16T11:43:55.489Z,1.67
2023-03-16T11:46:28.984Z,1.75
2023-03-16T11:49:08.750Z,1.79
2023-03-16T11:51:59.268Z,1.57
2023-03-16T11:54:59.557Z,1.78
2023-03-16T11:57:50.071Z,1.75
2023-03-16T12:00:22.330Z,1.80
2023-03-16T12:03:10.391Z,1.74
2023-03-16T12:05:55.739Z,1.84
2023-03-16T12:08:30.828Z,1.68
2023-03-16T12:11:13.210Z,1.73
2023-03-16T12:13:44.770Z,1.80
2023-03-16T12:16:49.138Z,1.89
2023-03-16T12:19:32.877Z,1.57
2023-03-16T12:22:10.489Z,1.77
2023-03-16T12:24:45.621Z,1.60
2023-03-16T12:27:23.011Z,1.55
2023-03-16T12:30:30.514Z,1.52
2023-03-16T12:33:07.784Z,1.68
2023-03-16T12:35:44.812Z,1.56
2023-03-16T12:38:51.189Z,1.42
2023-03-16T12:41:34.371Z,1.68
2023-03-16T12:44:12.833Z,1.72
2023-03-16T12:47:16.844Z,1.46
2023-03-16T12:49:44.868Z,1.37
2023-03-16T12:52:14.773Z,1.47
2023-03-16T12:55:13.490Z,1.39
2023-03-16T12:57:44.378Z,1.52
2023-03-16T13:00:14.679Z,1.71
2023-03-16T13:02:50.534Z,1.41
2023-03-16T13:05:30.438Z,1.44
2023-03-16T13:08:25.870Z,1.46
2023-03-16T13:11:14.469Z,1.56
2023-03-16T13:14:01.957Z,1.46
2023-03-16T13:16:33.501Z,1.50
2023-03-16T13:19:01.710Z,1.43
2023-03-16T13:21:41.218Z,1.52
2023-03-16T13:24:35.380Z,1.46
2023-03-16T13:27:15.996Z,1.50
2023-03-16T13:30:02.034Z,1.60
2023-03-16T13:32:35.285Z,1.51
2023-03-16T13:35:09.985Z,1.53
2023-03-16T13:37:39.554Z,1.62
2023-03-16T13:40:19.535Z,1.66
2023-03-16T13:42:53.283Z,1.69
2023-03-16T13:45:24.528Z,1.56
2023-03-16T13:47:53.494Z,1.41
2023-03-16T13:50:21.776Z,1.39
2023-03-16T13:53:17.267Z,1.38
2023-03-16T13:55:48.101Z,1.30
2023-03-16T13:58:36.326Z,1.36
2023-03-16T14:01:13.177Z,1.39
2023-03-16T14:03:42.447Z,1.50
2023-03-16T14:06:29.481Z,1.56
2023-03-16T14:09:03.019Z,1.30
2023-03-16T14:11:31.046Z,1.39
2023-03-16T14:14:00.713Z,1.49
2023-03-16T14:16:32.345Z,1.38
2023-03-16T14:19:24.632Z,1.44
2023-03-16T14:21:52.958Z,1.45
2023-03-16T14:24:40.765Z,1.28
2023-03-16T14:27:43.236Z,1.46
2023-03-16T14:30:24.570Z,1.30
2023-03-16T14:32:59.937Z,1.18
2023-03-16T14:35:32.325Z,1.19
2023-03-16T14:38:19.843Z,1.34
2023-03-16T14:40:57.635Z,1.39
2023-03-16T14:43:35.966Z,1.24
2023-03-16T14:46:08.705Z,1.21
2023-03-16T14:48:37.914Z,1.22
2023-03-16T14:51:06.449Z,1.29
2023-03-16T14:53:34.088Z,1.21
2023-03-16T14:56:02.191Z,1.27
2023-03-16T14:58:30.591Z,1.28
2023-03-16T15:00:58.342Z,1.16
2023-03-16T15:03:35.368Z,1.32
2023-03-16T15:06:03.848Z,1.13
2023-03-16T15:08:37.300Z,1.17
2023-03-16T15:11:07.944Z,1.12
2023-03-16T15:13:55.923Z,1.34
2023-03-16T15:16:23.620Z,1.21
2023-03-16T15:18:52.037Z,1.15
2023-03-16T15:21:29.583Z,1.50
2023-03-16T15:23:58.851Z,1.38
2023-03-16T15:26:29.490Z,1.43
2023-03-16T15:28:58.442Z,1.35
2023-03-16T15:31:26.823Z,1.39
2023-03-16T15:33:54.665Z,1.36
2023-03-16T15:36:24.394Z,1.42
2023-03-16T15:38:55.622Z,1.28
2023-03-16T15:41:30.127Z,1.39
2023-03-16T15:44:01.635Z,1.35
2023-03-16T15:46:29.943Z,1.42
2023-03-16T15:48:57.931Z,1.37
2023-03-16T15:51:32.333Z,1.24
2023-03-16T15:54:04.908Z,1.37
2023-03-16T15:56:50.961Z,1.50
2023-03-16T15:59:23.452Z,1.59
2023-03-16T16:01:53.051Z,1.59
2023-03-16T16:04:24.282Z,1.40
2023-03-16T16:06:55.451Z,1.41
2023-03-16T16:09:25.572Z,1.43
2023-03-16T16:11:53.516Z,1.24
2023-03-16T16:14:25.427Z,1.30
2023-03-16T16:16:54.551Z,1.29
2023-03-16T16:19:22.556Z,1.39
2023-03-16T16:21:50.527Z,1.21
2023-03-16T16:24:18.505Z,1.40
2023-03-16T16:26:54.267Z,1.32
2023-03-16T16:29:27.081Z,1.32
2023-03-16T16:31:55.461Z,1.37
2023-03-16T16:34:25.219Z,1.41
2023-03-16T16:36:55.165Z,1.42
2023-03-16T16:39:23.843Z,1.46
2023-03-16T16:41:55.043Z,1.42
2023-03-16T16:44:34.547Z,1.43
2023-03-16T16:47:04.065Z,1.61
2023-03-16T16:49:32.410Z,1.76
2023-03-16T16:52:01.227Z,1.30
2023-03-16T16:54:31.784Z,1.57
2023-03-16T16:57:01.301Z,1.38
2023-03-16T16:59:38.362Z,1.47
2023-03-16T17:02:24.979Z,1.49
2023-03-16T17:04:52.731Z,1.59
2023-03-16T17:07:20.673Z,1.34
2023-03-16T17:09:48.718Z,1.45
2023-03-16T17:12:21.935Z,1.51
2023-03-16T17:14:50.735Z,1.80
2023-03-16T17:17:18.937Z,1.91
2023-03-16T17:19:48.528Z,1.72
2023-03-16T17:22:28.690Z,1.71
2023-03-16T17:24:57.136Z,1.73
2023-03-16T17:27:32.411Z,1.72
2023-03-16T17:30:00.991Z,1.68
2023-03-16T17:32:29.173Z,1.75
2023-03-16T17:34:57.059Z,1.82
2023-03-16T17:37:24.745Z,1.73
2023-03-16T17:39:53.959Z,1.73
2023-03-16T17:42:23.265Z,1.85
2023-03-16T17:44:53.072Z,2.24
2023-03-16T17:47:20.899Z,2.21
2023-03-16T17:49:49.201Z,2.48
2023-03-16T17:52:20.667Z,2.44
2023-03-16T17:54:50.111Z,2.15
2023-03-16T17:57:24.463Z,2.08
2023-03-16T17:59:52.495Z,2.51
2023-03-16T18:02:26.374Z,2.53
2023-03-16T18:04:54.467Z,2.72
2023-03-16T18:07:22.422Z,2.68
2023-03-16T18:09:50.139Z,2.97
2023-03-16T18:12:17.923Z,3.42
2023-03-16T18:14:47.540Z,3.30
2023-03-16T18:17:31.109Z,3.11
2023-03-16T18:19:59.845Z,3.35
2023-03-16T18:22:27.978Z,3.14
2023-03-16T18:24:56.253Z,3.47
2023-03-16T18:27:24.432Z,3.69
2023-03-16T18:29:52.128Z,4.11
2023-03-16T18:32:29.773Z,4.13
2023-03-16T18:34:58.293Z,3.81
2023-03-16T18:37:28.330Z,3.88
2023-03-16T18:39:56.413Z,4.29
2023-03-16T18:42:28.144Z,4.22
2023-03-16T18:44:56.188Z,3.86
2023-03-16T18:47:31.722Z,3.53
2023-03-16T18:50:00.064Z,3.76
2023-03-16T18:52:32.064Z,4.49
2023-03-16T18:55:00.186Z,4.52
2023-03-16T18:57:31.854Z,4.58
2023-03-16T18:59:59.646Z,4.30
2023-03-16T19:02:39.133Z,4.09
2023-03-16T19:05:20.250Z,3.82
2023-03-16T19:07:51.627Z,4.02
2023-03-16T19:10:36.715Z,4.48
2023-03-16T19:13:10.260Z,5.04
2023-03-16T19:15:39.361Z,4.41
2023-03-16T19:18:08.246Z,4.13
2023-03-16T19:20:36.756Z,3.76
2023-03-16T19:23:18.457Z,3.78
2023-03-16T19:25:47.093Z,3.75
2023-03-16T19:28:37.209Z,3.82
2023-03-16T19:31:18.074Z,3.29
2023-03-16T19:33:46.815Z,3.28
2023-03-16T19:36:25.590Z,3.03
2023-03-16T19:38:53.696Z,2.92
2023-03-16T19:41:34.460Z,2.98
2023-03-16T19:44:13.317Z,3.10
2023-03-16T19:46:42.050Z,3.02
2023-03-16T19:49:30.958Z,2.75
2023-03-16T19:51:58.837Z,2.83
2023-03-16T19:54:32.090Z,2.59
2023-03-16T19:57:07.268Z,2.52
2023-03-16T19:59:36.840Z,2.66
2023-03-16T20:02:24.085Z,2.62
2023-03-16T20:04:52.754Z,2.54
2023-03-16T20:07:20.897Z,2.87
2023-03-16T20:09:49.053Z,2.69
2023-03-16T20:12:28.947Z,2.97
2023-03-16T20:14:57.965Z,2.79
2023-03-16T20:17:28.523Z,2.80
2023-03-16T20:19:57.762Z,2.97
2023-03-16T20:22:28.594Z,2.95
2023-03-16T20:24:58.109Z,2.88
2023-03-16T20:27:28.455Z,2.96
2023-03-16T20:29:56.448Z,2.83
2023-03-16T20:32:30.171Z,2.75
2023-03-16T20:34:58.339Z,2.64
2023-03-16T20:37:29.090Z,2.55
2023-03-16T20:39:59.083Z,2.39
2023-03-16T20:42:32.349Z,2.55
2023-03-16T20:45:01.367Z,2.81
2023-03-16T20:47:29.295Z,2.77
2023-03-16T20:49:57.695Z,2.66
2023-03-16T20:52:30.435Z,2.48
2023-03-16T20:54:58.961Z,2.41
2023-03-16T20:57:29.792Z,2.39
2023-03-16T20:59:58.110Z,2.48
2023-03-16T21:02:29.587Z,2.44
2023-03-16T21:04:59.572Z,2.28
2023-03-16T21:07:27.859Z,2.28
2023-03-16T21:09:56.558Z,2.64
2023-03-16T21:12:28.292Z,2.91
2023-03-16T21:15:00.669Z,2.89
2023-03-16T21:17:37.249Z,2.65
2023-03-16T21:20:16.593Z,2.33
2023-03-16T21:22:44.473Z,2.30
2023-03-16T21:25:22.237Z,2.30
2023-03-16T21:27:52.566Z,2.39
2023-03-16T21:30:26.073Z,2.34
2023-03-16T21:32:56.262Z,2.49
2023-03-16T21:35:33.502Z,2.53
2023-03-16T21:38:07.584Z,2.08
2023-03-16T21:40:35.416Z,2.22
2023-03-16T21:43:03.174Z,1.93
2023-03-16T21:45:31.279Z,2.25
2023-03-16T21:47:59.440Z,2.00
2023-03-16T21:50:34.660Z,2.14
2023-03-16T21:53:02.881Z,2.23
2023-03-16T21:55:32.026Z,1.95
2023-03-16T21:58:00.131Z,1.72
2023-03-16T22:00:32.411Z,1.95
2023-03-16T22:03:03.445Z,2.01
2023-03-16T22:05:40.129Z,2.13
2023-03-16T22:08:16.187Z,1.93
2023-03-16T22:10:44.697Z,1.87
2023-03-16T22:13:12.583Z,1.98
2023-03-16T22:15:42.682Z,2.01
2023-03-16T22:18:24.441Z,2.08
2023-03-16T22:20:52.949Z,1.81
2023-03-16T22:23:36.402Z,1.81
2023-03-16T22:26:08.451Z,1.90
2023-03-16T22:28:36.662Z,1.89
2023-03-16T22:31:05.517Z,1.81
2023-03-16T22:33:37.685Z,1.80
2023-03-16T22:36:08.478Z,1.93
2023-03-16T22:38:37.159Z,1.82
2023-03-16T22:41:06.274Z,1.91
2023-03-16T22:43:38.244Z,1.99
2023-03-16T22:46:06.321Z,1.80
2023-03-16T22:48:34.054Z,2.03
2023-03-16T22:51:05.074Z,1.86
2023-03-16T22:53:44.526Z,1.70
2023-03-16T22:56:13.241Z,1.70
2023-03-16T22:59:05.880Z,1.82
2023-03-16T23:01:43.996Z,1.76
2023-03-16T23:04:23.510Z,1.83
2023-03-16T23:06:53.842Z,1.87
2023-03-16T23:09:23.172Z,1.90
2023-03-16T23:11:54.263Z,1.66
2023-03-16T23:14:27.311Z,1.73
2023-03-16T23:16:55.512Z,1.68
2023-03-16T23:19:31.037Z,1.98
2023-03-16T23:22:05.457Z,1.56
2023-03-16T23:24:34.544Z,1.86
2023-03-16T23:27:03.160Z,1.55
2023-03-16T23:29:32.258Z,1.84
2023-03-16T23:32:00.470Z,1.84
2023-03-16T23:34:28.258Z,1.99
2023-03-16T23:36:56.268Z,1.72
2023-03-16T23:39:24.215Z,2.10
2023-03-16T23:41:53.251Z,2.13
2023-03-16T23:44:28.647Z,1.93
2023-03-16T23:46:56.957Z,2.20
2023-03-16T23:49:30.144Z,2.47
2023-03-16T23:52:04.160Z,2.62
2023-03-16T23:54:33.516Z,3.15
2023-03-16T23:57:01.921Z,2.80
2023-03-16T23:59:29.652Z,2.64
